Terminal Aerodrome Forecast
Issued by NWS Cleveland, OH

Home | Current Version | Previous Version | Graphics & Text | Print | Product List | Glossary On
Versions: 1 2 3 4 5 6 7 8 9 10 11 12 13 14 15 16
618
FTUS41 KCLE 251736
TAFCAK
TAF
KCAK 251736Z 2518/2618 24012G18KT P6SM SCT025 BKN200
     FM252100 24012G18KT P6SM VCTS BKN035CB
      TEMPO 2522/2602 3SM TSRA BR OVC025CB
     FM260300 26006KT 3SM BR OVC020
     FM261400 33006KT P6SM SCT025=

USA.gov is the U.S. government's official web portal to all federal, state and local government web resources and services.